sensor_id;sensor_type;location;lat;lon;timestamp;pressure;altitude;pressure_sealevel;temperature;humidity
73306;BME280;61530;51.158;0.880;2023-05-09T00:00:31;1011.93;;;11.9375;42.1181
73306;BME280;61530;51.158;0.880;2023-05-09T00:01:36;1011.87;;;12.0;40.8164
73306;BME280;61530;51.158;0.880;2023-05-09T00:02:39;1011.87;;;11.9375;42.7868
73306;BME280;61530;51.158;0.880;2023-05-09T00:03:44;1011.85;;;11.875;42.5618
73306;BME280;61530;51.158;0.880;2023-05-09T00:04:47;1011.83;;;11.9375;42.8856
73306;BME280;61530;51.158;0.880;2023-05-09T00:05:51;1011.8;;;11.875;42.2031
73306;BME280;61530;51.158;0.880;2023-05-09T00:06:54;1011.75;;;11.9375;44.226
73306;BME280;61530;51.158;0.880;2023-05-09T00:08:00;1011.75;;;11.875;45.1789
73306;BME280;61530;51.158;0.880;2023-05-09T00:09:04;1011.72;;;11.875;45.8076
73306;BME280;61530;51.158;0.880;2023-05-09T00:10:07;1011.7;;;11.875;46.8646
73306;BME280;61530;51.158;0.880;2023-05-09T00:11:10;1011.71;;;11.9375;45.8521
73306;BME280;61530;51.158;0.880;2023-05-09T00:12:16;1011.69;;;11.875;47.8638
73306;BME280;61530;51.158;0.880;2023-05-09T00:13:19;1011.7;;;11.9375;46.5611
73306;BME280;61530;51.158;0.880;2023-05-09T00:14:23;1011.65;;;11.9375;43.8208
73306;BME280;61530;51.158;0.880;2023-05-09T00:15:26;1011.63;;;11.875;43.3912
73306;BME280;61530;51.158;0.880;2023-05-09T00:16:31;1011.61;;;11.9375;43.0786
73306;BME280;61530;51.158;0.880;2023-05-09T00:17:35;1011.58;;;11.9375;44.5893
73306;BME280;61530;51.158;0.880;2023-05-09T00:18:38;1011.59;;;11.9375;45.0376
73306;BME280;61530;51.158;0.880;2023-05-09T00:19:43;1011.57;;;11.9375;43.5124
73306;BME280;61530;51.158;0.880;2023-05-09T00:20:48;1011.59;;;11.9375;43.1452
73306;BME280;61530;51.158;0.880;2023-05-09T00:21:51;1011.54;;;11.9375;44.2441
73306;BME280;61530;51.158;0.880;2023-05-09T00:22:55;1011.53;;;11.875;44.961
73306;BME280;61530;51.158;0.880;2023-05-09T00:23:58;1011.51;;;11.8125;44.6593
73306;BME280;61530;51.158;0.880;2023-05-09T00:25:05;1011.52;;;11.8125;43.8201
73306;BME280;61530;51.158;0.880;2023-05-09T00:26:08;1011.49;;;11.9375;41.4002
73306;BME280;61530;51.158;0.880;2023-05-09T00:27:11;1011.48;;;11.9375;43.6277
73306;BME280;61530;51.158;0.880;2023-05-09T00:28:14;1011.47;;;11.8125;44.7057
73306;BME280;61530;51.158;0.880;2023-05-09T00:29:20;1011.48;;;11.875;44.062
73306;BME280;61530;51.158;0.880;2023-05-09T00:30:23;1011.46;;;11.875;43.047
73306;BME280;61530;51.158;0.880;2023-05-09T00:31:27;1011.45;;;11.9375;42.5384
73306;BME280;61530;51.158;0.880;2023-05-09T00:32:31;1011.39;;;11.75;45.3013
73306;BME280;61530;51.158;0.880;2023-05-09T00:33:35;1011.42;;;11.875;44.8032
73306;BME280;61530;51.158;0.880;2023-05-09T00:34:39;1011.4;;;11.8125;47.0955
73306;BME280;61530;51.158;0.880;2023-05-09T00:35:42;1011.37;;;11.8125;47.0578
73306;BME280;61530;51.158;0.880;2023-05-09T00:36:46;1011.34;;;11.75;44.8793
73306;BME280;61530;51.158;0.880;2023-05-09T00:37:52;1011.36;;;11.75;45.1745
73306;BME280;61530;51.158;0.880;2023-05-09T00:38:55;1011.31;;;11.8125;44.9033
73306;BME280;61530;51.158;0.880;2023-05-09T00:39:59;1011.28;;;11.875;45.1413
73306;BME280;61530;51.158;0.880;2023-05-09T00:41:02;1011.26;;;11.9375;43.8442
73306;BME280;61530;51.158;0.880;2023-05-09T00:42:07;1011.26;;;11.9375;42.0879
73306;BME280;61530;51.158;0.880;2023-05-09T00:43:11;1011.25;;;12.0;43.8558
73306;BME280;61530;51.158;0.880;2023-05-09T00:44:15;1011.19;;;12.0;43.0023
73306;BME280;61530;51.158;0.880;2023-05-09T00:45:18;1011.21;;;12.0;40.6312
73306;BME280;61530;51.158;0.880;2023-05-09T00:46:24;1011.21;;;12.0;41.1406
73306;BME280;61530;51.158;0.880;2023-05-09T00:47:28;1011.2;;;12.0625;43.5889
73306;BME280;61530;51.158;0.880;2023-05-09T00:48:31;1011.16;;;12.0625;44.0511
73306;BME280;61530;51.158;0.880;2023-05-09T00:49:34;1011.12;;;12.0;44.664
73306;BME280;61530;51.158;0.880;2023-05-09T00:50:40;1011.13;;;12.0;43.3547
73306;BME280;61530;51.158;0.880;2023-05-09T00:51:43;1011.11;;;12.0625;43.7477
73306;BME280;61530;51.158;0.880;2023-05-09T00:52:46;1011.1;;;12.0625;42.875
73306;BME280;61530;51.158;0.880;2023-05-09T00:53:50;1011.08;;;12.0625;43.776
73306;BME280;61530;51.158;0.880;2023-05-09T00:54:56;1011.08;;;12.125;42.7718
73306;BME280;61530;51.158;0.880;2023-05-09T00:55:59;1011.02;;;12.0;44.8647
73306;BME280;61530;51.158;0.880;2023-05-09T00:57:03;1011.04;;;12.0625;44.5919
73306;BME280;61530;51.158;0.880;2023-05-09T00:58:06;1011.04;;;12.0625;45.1452
73306;BME280;61530;51.158;0.880;2023-05-09T00:59:12;1011.04;;;12.0;44.7073
73306;BME280;61530;51.158;0.880;2023-05-09T01:00:17;1011.02;;;12.0625;44.4368
73306;BME280;61530;51.158;0.880;2023-05-09T01:01:18;1011.01;;;12.0;45.6664
73306;BME280;61530;51.158;0.880;2023-05-09T01:02:22;1011.02;;;11.9375;44.3936
73306;BME280;61530;51.158;0.880;2023-05-09T01:03:28;1010.94;;;12.0;46.5784
73306;BME280;61530;51.158;0.880;2023-05-09T01:04:31;1010.95;;;12.0625;45.2305
73306;BME280;61530;51.158;0.880;2023-05-09T01:05:42;1010.93;;;12.0625;45.145
73306;BME280;61530;51.158;0.880;2023-05-09T01:06:51;1010.94;;;12.125;44.1442
73306;BME280;61530;51.158;0.880;2023-05-09T01:07:51;1010.89;;;12.125;44.9149
73306;BME280;61530;51.158;0.880;2023-05-09T01:08:54;1010.93;;;12.125;47.4378
73306;BME280;61530;51.158;0.880;2023-05-09T01:10:00;1010.9;;;12.0625;46.5003
73306;BME280;61530;51.158;0.880;2023-05-09T01:11:00;1010.85;;;12.0;46.6662
73306;BME280;61530;51.158;0.880;2023-05-09T01:12:09;1010.86;;;12.125;46.4935
73306;BME280;61530;51.158;0.880;2023-05-09T01:13:05;1010.85;;;12.0625;45.4932
73306;BME280;61530;51.158;0.880;2023-05-09T01:14:14;1010.81;;;12.125;45.7186
73306;BME280;61530;51.158;0.880;2023-05-09T01:15:15;1010.83;;;12.125;45.2944
73306;BME280;61530;51.158;0.880;2023-05-09T01:16:25;1010.81;;;12.125;44.5992
73306;BME280;61530;51.158;0.880;2023-05-09T01:17:35;1010.79;;;12.125;49.1858
73306;BME280;61530;51.158;0.880;2023-05-09T01:18:28;1010.71;;;12.0625;49.7055
73306;BME280;61530;51.158;0.880;2023-05-09T01:19:38;1010.72;;;12.125;48.8924
73306;BME280;61530;51.158;0.880;2023-05-09T01:20:37;1010.68;;;12.0625;50.1456
73306;BME280;61530;51.158;0.880;2023-05-09T01:21:39;1010.61;;;12.0625;47.0624
73306;BME280;61530;51.158;0.880;2023-05-09T01:22:46;1010.64;;;12.125;44.7133
73306;BME280;61530;51.158;0.880;2023-05-09T01:24:06;1010.58;;;12.125;46.9487
73306;BME280;61530;51.158;0.880;2023-05-09T01:25:05;1010.57;;;12.0;47.8401
73306;BME280;61530;51.158;0.880;2023-05-09T01:25:56;1010.53;;;12.125;47.8397
73306;BME280;61530;51.158;0.880;2023-05-09T01:27:11;1010.5;;;12.125;49.0575
73306;BME280;61530;51.158;0.880;2023-05-09T01:28:10;1010.46;;;12.1875;47.152
73306;BME280;61530;51.158;0.880;2023-05-09T01:29:35;1010.43;;;12.0625;49.0614
73306;BME280;61530;51.158;0.880;2023-05-09T01:30:09;1010.41;;;12.125;47.4066
73306;BME280;61530;51.158;0.880;2023-05-09T01:31:11;1010.39;;;12.125;50.3871
73306;BME280;61530;51.158;0.880;2023-05-09T01:32:17;1010.39;;;12.125;48.6937
73306;BME280;61530;51.158;0.880;2023-05-09T01:33:20;1010.34;;;12.125;48.035
73306;BME280;61530;51.158;0.880;2023-05-09T01:34:25;1010.31;;;12.125;44.7235
73306;BME280;61530;51.158;0.880;2023-05-09T01:35:29;1010.3;;;12.1875;46.7957
73306;BME280;61530;51.158;0.880;2023-05-09T01:36:31;1010.29;;;12.1875;45.9472
73306;BME280;61530;51.158;0.880;2023-05-09T01:37:40;1010.26;;;12.1875;45.491
73306;BME280;61530;51.158;0.880;2023-05-09T01:38:41;1010.26;;;12.1875;47.0422
73306;BME280;61530;51.158;0.880;2023-05-09T01:39:47;1010.21;;;12.25;44.1985
73306;BME280;61530;51.158;0.880;2023-05-09T01:40:49;1010.2;;;12.25;44.4957
73306;BME280;61530;51.158;0.880;2023-05-09T01:41:54;1010.19;;;12.125;48.9261
73306;BME280;61530;51.158;0.880;2023-05-09T01:42:58;1010.18;;;12.125;50.242
73306;BME280;61530;51.158;0.880;2023-05-09T01:44:02;1010.19;;;12.1875;48.8895
73306;BME280;61530;51.158;0.880;2023-05-09T01:45:03;1010.16;;;12.1875;48.8403
73306;BME280;61530;51.158;0.880;2023-05-09T01:46:08;1010.16;;;12.1875;49.1008
73306;BME280;61530;51.158;0.880;2023-05-09T01:47:11;1010.14;;;12.25;48.9166
73306;BME280;61530;51.158;0.880;2023-05-09T01:48:15;1010.11;;;12.1875;48.7201
73306;BME280;61530;51.158;0.880;2023-05-09T01:49:19;1010.08;;;12.1875;47.457
73306;BME280;61530;51.158;0.880;2023-05-09T01:50:24;1010.07;;;12.25;48.4319
73306;BME280;61530;51.158;0.880;2023-05-09T01:51:28;1010.04;;;12.25;49.0623
73306;BME280;61530;51.158;0.880;2023-05-09T01:52:31;1010.03;;;12.25;49.643
73306;BME280;61530;51.158;0.880;2023-05-09T01:53:35;1010.02;;;12.1875;49.2032
73306;BME280;61530;51.158;0.880;2023-05-09T01:54:40;1010.05;;;12.1875;48.0934
73306;BME280;61530;51.158;0.880;2023-05-09T01:55:44;1010.0;;;12.1875;51.8773
73306;BME280;61530;51.158;0.880;2023-05-09T01:56:47;1010.0;;;12.1875;51.7989
73306;BME280;61530;51.158;0.880;2023-05-09T01:57:51;1010.0;;;12.25;51.2014
73306;BME280;61530;51.158;0.880;2023-05-09T01:58:56;1009.98;;;12.1875;50.2555
73306;BME280;61530;51.158;0.880;2023-05-09T02:00:01;1010.01;;;12.125;49.2024
73306;BME280;61530;51.158;0.880;2023-05-09T02:01:03;1009.97;;;12.125;51.5501
73306;BME280;61530;51.158;0.880;2023-05-09T02:02:07;1009.96;;;12.1875;51.0221
73306;BME280;61530;51.158;0.880;2023-05-09T02:03:12;1009.95;;;12.125;49.296
73306;BME280;61530;51.158;0.880;2023-05-09T02:04:15;1009.96;;;12.125;48.4715
73306;BME280;61530;51.158;0.880;2023-05-09T02:05:20;1009.96;;;12.125;51.9672
73306;BME280;61530;51.158;0.880;2023-05-09T02:06:23;1009.93;;;12.25;50.4812
73306;BME280;61530;51.158;0.880;2023-05-09T02:07:28;1009.96;;;12.125;51.1592
73306;BME280;61530;51.158;0.880;2023-05-09T02:08:32;1009.94;;;12.125;48.7588
73306;BME280;61530;51.158;0.880;2023-05-09T02:09:35;1009.92;;;12.125;49.112
73306;BME280;61530;51.158;0.880;2023-05-09T02:10:39;1009.89;;;12.1875;50.6045
73306;BME280;61530;51.158;0.880;2023-05-09T02:11:44;1009.92;;;12.1875;49.4208
73306;BME280;61530;51.158;0.880;2023-05-09T02:12:47;1009.89;;;12.1875;50.7764
73306;BME280;61530;51.158;0.880;2023-05-09T02:13:51;1009.87;;;12.125;50.7437
73306;BME280;61530;51.158;0.880;2023-05-09T02:14:54;1009.83;;;12.1875;50.867
73306;BME280;61530;51.158;0.880;2023-05-09T02:16:00;1009.82;;;12.125;52.2407
73306;BME280;61530;51.158;0.880;2023-05-09T02:17:03;1009.8;;;12.125;51.936
73306;BME280;61530;51.158;0.880;2023-05-09T02:18:06;1009.79;;;12.125;51.8587
73306;BME280;61530;51.158;0.880;2023-05-09T02:19:10;1009.81;;;12.125;50.3267
73306;BME280;61530;51.158;0.880;2023-05-09T02:20:16;1009.77;;;12.125;50.8221
73306;BME280;61530;51.158;0.880;2023-05-09T02:21:19;1009.79;;;12.125;48.8179
73306;BME280;61530;51.158;0.880;2023-05-09T02:22:23;1009.76;;;12.125;49.8547
73306;BME280;61530;51.158;0.880;2023-05-09T02:23:26;1009.73;;;12.125;48.9406
73306;BME280;61530;51.158;0.880;2023-05-09T02:24:32;1009.74;;;12.0625;48.6976
73306;BME280;61530;51.158;0.880;2023-05-09T02:25:35;1009.73;;;12.125;49.2713
73306;BME280;61530;51.158;0.880;2023-05-09T02:26:39;1009.71;;;12.125;47.558
73306;BME280;61530;51.158;0.880;2023-05-09T02:27:44;1009.68;;;12.125;48.7247
73306;BME280;61530;51.158;0.880;2023-05-09T02:28:49;1009.7;;;12.125;48.8943
73306;BME280;61530;51.158;0.880;2023-05-09T02:29:54;1009.67;;;12.125;48.1989
73306;BME280;61530;51.158;0.880;2023-05-09T02:30:57;1009.65;;;12.125;48.5064
73306;BME280;61530;51.158;0.880;2023-05-09T02:31:59;1009.65;;;12.25;48.2893
73306;BME280;61530;51.158;0.880;2023-05-09T02:33:06;1009.65;;;12.0625;48.0738
73306;BME280;61530;51.158;0.880;2023-05-09T02:34:08;1009.63;;;12.125;47.3395
73306;BME280;61530;51.158;0.880;2023-05-09T02:35:12;1009.66;;;12.125;49.1484
73306;BME280;61530;51.158;0.880;2023-05-09T02:36:15;1009.61;;;12.0625;51.3408
73306;BME280;61530;51.158;0.880;2023-05-09T02:37:20;1009.63;;;12.0625;49.1691
73306;BME280;61530;51.158;0.880;2023-05-09T02:38:23;1009.57;;;12.0625;51.4259
73306;BME280;61530;51.158;0.880;2023-05-09T02:39:27;1009.55;;;12.125;51.377
73306;BME280;61530;51.158;0.880;2023-05-09T02:40:30;1009.54;;;11.9375;52.637
73306;BME280;61530;51.158;0.880;2023-05-09T02:41:35;1009.51;;;12.0;51.1741
73306;BME280;61530;51.158;0.880;2023-05-09T02:42:39;1009.51;;;12.0;53.4988
73306;BME280;61530;51.158;0.880;2023-05-09T02:43:43;1009.47;;;12.0625;50.4661
73306;BME280;61530;51.158;0.880;2023-05-09T02:44:46;1009.43;;;12.0;48.2986
73306;BME280;61530;51.158;0.880;2023-05-09T02:45:52;1009.43;;;12.0625;48.186
73306;BME280;61530;51.158;0.880;2023-05-09T02:46:55;1009.41;;;12.0;49.5801
73306;BME280;61530;51.158;0.880;2023-05-09T02:47:59;1009.41;;;12.0625;47.4566
73306;BME280;61530;51.158;0.880;2023-05-09T02:49:02;1009.39;;;12.0625;48.0143
73306;BME280;61530;51.158;0.880;2023-05-09T02:50:08;1009.35;;;12.0625;49.1041
73306;BME280;61530;51.158;0.880;2023-05-09T02:51:11;1009.38;;;12.0625;48.3116
73306;BME280;61530;51.158;0.880;2023-05-09T02:52:14;1009.38;;;12.125;47.6196
73306;BME280;61530;51.158;0.880;2023-05-09T02:53:18;1009.35;;;12.0625;48.2873
73306;BME280;61530;51.158;0.880;2023-05-09T02:54:24;1009.38;;;12.125;48.0366
73306;BME280;61530;51.158;0.880;2023-05-09T02:55:27;1009.37;;;12.125;46.7676
73306;BME280;61530;51.158;0.880;2023-05-09T02:56:31;1009.32;;;12.125;47.1883
73306;BME280;61530;51.158;0.880;2023-05-09T02:57:34;1009.35;;;12.125;45.1264
73306;BME280;61530;51.158;0.880;2023-05-09T02:58:39;1009.31;;;12.1875;46.8537
73306;BME280;61530;51.158;0.880;2023-05-09T02:59:43;1009.27;;;12.0625;47.3508
73306;BME280;61530;51.158;0.880;2023-05-09T03:00:47;1009.3;;;12.0625;46.0494
73306;BME280;61530;51.158;0.880;2023-05-09T03:01:50;1009.22;;;12.1875;46.6637
73306;BME280;61530;51.158;0.880;2023-05-09T03:02:56;1009.24;;;12.125;46.3835
73306;BME280;61530;51.158;0.880;2023-05-09T03:03:59;1009.26;;;12.0625;48.5374
73306;BME280;61530;51.158;0.880;2023-05-09T03:05:03;1009.24;;;12.0625;49.6246
73306;BME280;61530;51.158;0.880;2023-05-09T03:06:06;1009.22;;;12.0625;50.0231
73306;BME280;61530;51.158;0.880;2023-05-09T03:07:12;1009.21;;;12.0625;48.5598
73306;BME280;61530;51.158;0.880;2023-05-09T03:08:15;1009.23;;;12.0625;49.3075
73306;BME280;61530;51.158;0.880;2023-05-09T03:09:18;1009.18;;;12.0;49.3928
73306;BME280;61530;51.158;0.880;2023-05-09T03:10:22;1009.23;;;12.125;48.0578
73306;BME280;61530;51.158;0.880;2023-05-09T03:11:28;1009.18;;;12.0625;51.4943
73306;BME280;61530;51.158;0.880;2023-05-09T03:12:31;1009.21;;;12.125;49.1227
73306;BME280;61530;51.158;0.880;2023-05-09T03:13:35;1009.18;;;12.0625;49.3067
73306;BME280;61530;51.158;0.880;2023-05-09T03:14:38;1009.2;;;12.0625;49.0007
73306;BME280;61530;51.158;0.880;2023-05-09T03:15:43;1009.22;;;12.1875;48.6894
73306;BME280;61530;51.158;0.880;2023-05-09T03:16:47;1009.19;;;12.125;46.907
73306;BME280;61530;51.158;0.880;2023-05-09T03:17:50;1009.17;;;12.1875;48.3222
73306;BME280;61530;51.158;0.880;2023-05-09T03:18:54;1009.2;;;12.1875;47.2046
73306;BME280;61530;51.158;0.880;2023-05-09T03:20:00;1009.17;;;12.1875;46.5512
73306;BME280;61530;51.158;0.880;2023-05-09T03:21:03;1009.14;;;12.1875;47.2833
73306;BME280;61530;51.158;0.880;2023-05-09T03:22:07;1009.1;;;12.125;47.5529
73306;BME280;61530;51.158;0.880;2023-05-09T03:23:10;1009.12;;;12.125;47.7033
73306;BME280;61530;51.158;0.880;2023-05-09T03:24:15;1009.07;;;12.1875;47.7643
73306;BME280;61530;51.158;0.880;2023-05-09T03:25:19;1009.07;;;12.0625;45.2777
73306;BME280;61530;51.158;0.880;2023-05-09T03:26:22;1009.06;;;12.125;45.876
73306;BME280;61530;51.158;0.880;2023-05-09T03:27:26;1009.07;;;12.0625;47.973
73306;BME280;61530;51.158;0.880;2023-05-09T03:28:32;1009.04;;;12.1875;47.9235
73306;BME280;61530;51.158;0.880;2023-05-09T03:29:35;1009.06;;;12.1875;46.7436
73306;BME280;61530;51.158;0.880;2023-05-09T03:30:39;1009.06;;;12.125;47.5824
73306;BME280;61530;51.158;0.880;2023-05-09T03:31:42;1009.08;;;12.0625;46.3038
73306;BME280;61530;51.158;0.880;2023-05-09T03:32:47;1009.05;;;12.125;45.134
73306;BME280;61530;51.158;0.880;2023-05-09T03:33:51;1009.02;;;12.1875;45.5711
73306;BME280;61530;51.158;0.880;2023-05-09T03:34:54;1009.01;;;12.1875;46.1684
73306;BME280;61530;51.158;0.880;2023-05-09T03:35:58;1009.03;;;12.1875;46.6861
73306;BME280;61530;51.158;0.880;2023-05-09T03:37:04;1009.01;;;12.125;45.6178
73306;BME280;61530;51.158;0.880;2023-05-09T03:38:07;1009.02;;;12.125;45.5784
73306;BME280;61530;51.158;0.880;2023-05-09T03:39:11;1009.01;;;12.1875;47.696
73306;BME280;61530;51.158;0.880;2023-05-09T03:40:14;1009.0;;;12.125;48.4579
73306;BME280;61530;51.158;0.880;2023-05-09T03:41:20;1008.97;;;12.0625;47.7827
73306;BME280;61530;51.158;0.880;2023-05-09T03:42:23;1008.9;;;12.125;47.6449
73306;BME280;61530;51.158;0.880;2023-05-09T03:43:26;1008.92;;;12.1875;46.9933
73306;BME280;61530;51.158;0.880;2023-05-09T03:44:30;1008.88;;;12.0625;47.3397
73306;BME280;61530;51.158;0.880;2023-05-09T03:45:36;1008.89;;;12.0;46.4046
73306;BME280;61530;51.158;0.880;2023-05-09T03:46:39;1008.89;;;12.125;46.409
73306;BME280;61530;51.158;0.880;2023-05-09T03:47:43;1008.9;;;12.0625;45.3014
73306;BME280;61530;51.158;0.880;2023-05-09T03:48:46;1008.89;;;12.125;45.2371
73306;BME280;61530;51.158;0.880;2023-05-09T03:49:52;1008.9;;;12.125;45.1306
73306;BME280;61530;51.158;0.880;2023-05-09T03:50:55;1008.88;;;12.0625;45.0141
73306;BME280;61530;51.158;0.880;2023-05-09T03:51:58;1008.85;;;12.125;44.9451
73306;BME280;61530;51.158;0.880;2023-05-09T03:53:03;1008.82;;;12.1875;45.1176
73306;BME280;61530;51.158;0.880;2023-05-09T03:54:08;1008.79;;;12.125;43.8477
73306;BME280;61530;51.158;0.880;2023-05-09T03:55:11;1008.79;;;12.1875;44.2191
73306;BME280;61530;51.158;0.880;2023-05-09T03:56:15;1008.74;;;12.1875;43.0614
73306;BME280;61530;51.158;0.880;2023-05-09T03:57:18;1008.77;;;12.125;44.676
73306;BME280;61530;51.158;0.880;2023-05-09T03:58:23;1008.79;;;12.125;45.2038
73306;BME280;61530;51.158;0.880;2023-05-09T03:59:27;1008.74;;;12.125;46.2848
73306;BME280;61530;51.158;0.880;2023-05-09T04:00:30;1008.75;;;12.125;45.7091
73306;BME280;61530;51.158;0.880;2023-05-09T04:01:34;1008.74;;;12.0625;44.5601
73306;BME280;61530;51.158;0.880;2023-05-09T04:02:40;1008.73;;;12.125;43.9355
73306;BME280;61530;51.158;0.880;2023-05-09T04:03:43;1008.69;;;12.125;45.886
73306;BME280;61530;51.158;0.880;2023-05-09T04:04:47;1008.7;;;12.125;46.1121
73306;BME280;61530;51.158;0.880;2023-05-09T04:05:50;1008.72;;;12.125;45.3867
73306;BME280;61530;51.158;0.880;2023-05-09T04:06:55;1008.74;;;12.1875;45.0515
73306;BME280;61530;51.158;0.880;2023-05-09T04:07:59;1008.74;;;12.125;43.8171
73306;BME280;61530;51.158;0.880;2023-05-09T04:09:03;1008.72;;;12.1875;43.9375
73306;BME280;61530;51.158;0.880;2023-05-09T04:10:07;1008.7;;;12.1875;45.467
73306;BME280;61530;51.158;0.880;2023-05-09T04:11:12;1008.72;;;12.0;45.5388
73306;BME280;61530;51.158;0.880;2023-05-09T04:12:15;1008.69;;;12.0625;45.2606
73306;BME280;61530;51.158;0.880;2023-05-09T04:13:19;1008.66;;;12.125;44.1515
73306;BME280;61530;51.158;0.880;2023-05-09T04:14:22;1008.62;;;12.25;42.7259
73306;BME280;61530;51.158;0.880;2023-05-09T04:15:29;1008.64;;;12.125;44.0893
73306;BME280;61530;51.158;0.880;2023-05-09T04:16:31;1008.62;;;12.0625;44.7185
73306;BME280;61530;51.158;0.880;2023-05-09T04:17:34;1008.6;;;12.25;43.5808
73306;BME280;61530;51.158;0.880;2023-05-09T04:18:38;1008.63;;;12.1875;43.4696
73306;BME280;61530;51.158;0.880;2023-05-09T04:19:44;1008.62;;;12.1875;44.6718
73306;BME280;61530;51.158;0.880;2023-05-09T04:20:47;1008.61;;;12.125;44.5969
73306;BME280;61530;51.158;0.880;2023-05-09T04:21:51;1008.6;;;12.1875;43.6372
73306;BME280;61530;51.158;0.880;2023-05-09T04:22:54;1008.6;;;12.125;43.1532
73306;BME280;61530;51.158;0.880;2023-05-09T04:24:00;1008.6;;;12.125;45.876
73306;BME280;61530;51.158;0.880;2023-05-09T04:25:04;1008.58;;;12.125;46.1898
73306;BME280;61530;51.158;0.880;2023-05-09T04:26:06;1008.56;;;12.0625;45.2605
73306;BME280;61530;51.158;0.880;2023-05-09T04:27:10;1008.55;;;12.125;45.7506
73306;BME280;61530;51.158;0.880;2023-05-09T04:28:16;1008.55;;;12.0625;47.4046
73306;BME280;61530;51.158;0.880;2023-05-09T04:29:19;1008.53;;;12.125;45.1321
73306;BME280;61530;51.158;0.880;2023-05-09T04:30:23;1008.53;;;12.1875;44.4914
73306;BME280;61530;51.158;0.880;2023-05-09T04:31:26;1008.45;;;12.1875;43.7442
73306;BME280;61530;51.158;0.880;2023-05-09T04:32:31;1008.45;;;12.25;42.7102
73306;BME280;61530;51.158;0.880;2023-05-09T04:33:37;1008.47;;;12.25;42.4325
73306;BME280;61530;51.158;0.880;2023-05-09T04:34:38;1008.47;;;12.25;43.0328
73306;BME280;61530;51.158;0.880;2023-05-09T04:35:42;1008.46;;;12.25;43.5703
73306;BME280;61530;51.158;0.880;2023-05-09T04:36:48;1008.44;;;12.1875;43.4372
73306;BME280;61530;51.158;0.880;2023-05-09T04:37:51;1008.49;;;12.1875;43.8695
73306;BME280;61530;51.158;0.880;2023-05-09T04:38:55;1008.46;;;12.25;44.0878
73306;BME280;61530;51.158;0.880;2023-05-09T04:39:58;1008.44;;;12.1875;43.3219
73306;BME280;61530;51.158;0.880;2023-05-09T04:41:04;1008.44;;;12.1875;42.9405
73306;BME280;61530;51.158;0.880;2023-05-09T04:42:07;1008.46;;;12.1875;42.9978
73306;BME280;61530;51.158;0.880;2023-05-09T04:43:10;1008.47;;;12.125;44.2789
73306;BME280;61530;51.158;0.880;2023-05-09T04:44:14;1008.47;;;12.25;43.7424
73306;BME280;61530;51.158;0.880;2023-05-09T04:45:20;1008.52;;;12.1875;44.3527
73306;BME280;61530;51.158;0.880;2023-05-09T04:46:23;1008.5;;;12.1875;43.1296
73306;BME280;61530;51.158;0.880;2023-05-09T04:47:27;1008.53;;;12.25;43.9161
73306;BME280;61530;51.158;0.880;2023-05-09T04:48:30;1008.54;;;12.125;44.5656
73306;BME280;61530;51.158;0.880;2023-05-09T04:49:35;1008.54;;;12.125;44.8013
73306;BME280;61530;51.158;0.880;2023-05-09T04:50:40;1008.54;;;12.125;44.6179
73306;BME280;61530;51.158;0.880;2023-05-09T04:51:42;1008.54;;;12.125;45.2041
73306;BME280;61530;51.158;0.880;2023-05-09T04:52:46;1008.53;;;12.125;44.4808
73306;BME280;61530;51.158;0.880;2023-05-09T04:53:52;1008.47;;;12.25;43.5876
73306;BME280;61530;51.158;0.880;2023-05-09T04:54:55;1008.49;;;12.25;43.4073
73306;BME280;61530;51.158;0.880;2023-05-09T04:55:59;1008.47;;;12.25;43.1495
73306;BME280;61530;51.158;0.880;2023-05-09T04:57:02;1008.46;;;12.3125;42.2123
73306;BME280;61530;51.158;0.880;2023-05-09T04:58:08;1008.5;;;12.1875;41.999
73306;BME280;61530;51.158;0.880;2023-05-09T04:59:11;1008.47;;;12.3125;41.5414
73306;BME280;61530;51.158;0.880;2023-05-09T05:00:15;1008.51;;;12.3125;42.3798
73306;BME280;61530;51.158;0.880;2023-05-09T05:01:18;1008.46;;;12.3125;42.6112
73306;BME280;61530;51.158;0.880;2023-05-09T05:02:24;1008.48;;;12.3125;42.3518
73306;BME280;61530;51.158;0.880;2023-05-09T05:03:29;1008.49;;;12.3125;42.3221
73306;BME280;61530;51.158;0.880;2023-05-09T05:04:31;1008.52;;;12.375;42.1839
73306;BME280;61530;51.158;0.880;2023-05-09T05:05:34;1008.52;;;12.25;42.0151
73306;BME280;61530;51.158;0.880;2023-05-09T05:06:39;1008.5;;;12.25;42.8877
73306;BME280;61530;51.158;0.880;2023-05-09T05:07:43;1008.5;;;12.3125;44.0768
73306;BME280;61530;51.158;0.880;2023-05-09T05:08:46;1008.48;;;12.3125;42.8478
73306;BME280;61530;51.158;0.880;2023-05-09T05:09:50;1008.51;;;12.3125;42.4672
73306;BME280;61530;51.158;0.880;2023-05-09T05:10:56;1008.49;;;12.25;43.3274
73306;BME280;61530;51.158;0.880;2023-05-09T05:11:59;1008.5;;;12.3125;42.8653
73306;BME280;61530;51.158;0.880;2023-05-09T05:13:03;1008.49;;;12.25;43.776
73306;BME280;61530;51.158;0.880;2023-05-09T05:14:06;1008.46;;;12.25;43.0167
73306;BME280;61530;51.158;0.880;2023-05-09T05:15:12;1008.45;;;12.25;42.3511
73306;BME280;61530;51.158;0.880;2023-05-09T05:16:15;1008.44;;;12.3125;41.7497
73306;BME280;61530;51.158;0.880;2023-05-09T05:17:18;1008.41;;;12.3125;43.0574
73306;BME280;61530;51.158;0.880;2023-05-09T05:18:22;1008.41;;;12.3125;41.6044
73306;BME280;61530;51.158;0.880;2023-05-09T05:19:28;1008.38;;;12.25;41.7207
73306;BME280;61530;51.158;0.880;2023-05-09T05:20:31;1008.34;;;12.375;41.8314
73306;BME280;61530;51.158;0.880;2023-05-09T05:21:35;1008.33;;;12.375;41.4779
73306;BME280;61530;51.158;0.880;2023-05-09T05:22:38;1008.33;;;12.375;40.8861
73306;BME280;61530;51.158;0.880;2023-05-09T05:23:43;1008.31;;;12.5;40.6307
73306;BME280;61530;51.158;0.880;2023-05-09T05:24:47;1008.33;;;12.4375;39.8816
73306;BME280;61530;51.158;0.880;2023-05-09T05:25:50;1008.32;;;12.4375;40.1082
73306;BME280;61530;51.158;0.880;2023-05-09T05:26:54;1008.3;;;12.5;40.6887
73306;BME280;61530;51.158;0.880;2023-05-09T05:28:00;1008.31;;;12.4375;41.9462
73306;BME280;61530;51.158;0.880;2023-05-09T05:29:03;1008.26;;;12.3125;41.4022
73306;BME280;61530;51.158;0.880;2023-05-09T05:30:08;1008.29;;;12.4375;41.5706